createdAt,value
2018-12-14T00:01:48.890Z,97908.15
2018-12-14T00:04:27.487Z,97920.36
2018-12-14T00:07:01.809Z,97922.11
2018-12-14T00:09:34.992Z,97916.06
2018-12-14T00:12:07.611Z,97923.52
2018-12-14T00:14:40.132Z,97933.13
2018-12-14T00:17:14.027Z,97926.13
2018-12-14T00:19:47.405Z,97928.78
2018-12-14T00:22:21.170Z,97931.38
2018-12-14T00:24:52.651Z,97933.13
2018-12-14T00:27:26.176Z,97932.37
2018-12-14T00:29:59.392Z,97934.16
2018-12-14T00:32:32.334Z,97927.59
2018-12-14T00:35:05.859Z,97924.43
2018-12-14T00:37:38.913Z,97929.70
2018-12-14T00:40:16.993Z,97924.00
2018-12-14T00:42:49.428Z,97927.99
2018-12-14T00:45:21.769Z,97927.53
2018-12-14T00:47:54.700Z,97926.19
2018-12-14T00:50:27.817Z,97923.58
2018-12-14T00:53:00.980Z,97921.03
2018-12-14T00:55:37.946Z,97924.09
2018-12-14T00:58:10.225Z,97921.89
2018-12-14T01:00:47.421Z,97920.65
2018-12-14T01:03:19.735Z,97917.17
2018-12-14T01:05:52.764Z,97928.41
2018-12-14T01:08:29.762Z,97923.25
2018-12-14T01:11:02.740Z,97923.22
2018-12-14T01:13:35.265Z,97920.64
2018-12-14T01:16:07.579Z,97920.60
2018-12-14T01:18:44.268Z,97914.98
2018-12-14T01:21:20.491Z,97915.41
2018-12-14T01:23:56.532Z,97915.86
2018-12-14T01:26:29.967Z,97918.03
2018-12-14T01:29:06.887Z,97915.88
2018-12-14T01:31:43.145Z,97913.67
2018-12-14T01:34:15.420Z,97921.91
2018-12-14T01:36:47.760Z,97921.50
2018-12-14T01:39:24.226Z,97919.00
2018-12-14T01:42:04.855Z,97924.66
2018-12-14T01:44:35.483Z,97922.59
2018-12-14T01:47:08.587Z,97919.52
2018-12-14T01:49:41.679Z,97927.87
2018-12-14T01:52:14.743Z,97927.80
2018-12-14T01:54:47.161Z,97919.06
2018-12-14T01:57:24.467Z,97913.88
2018-12-14T01:59:57.256Z,97920.81
2018-12-14T02:02:29.785Z,97917.78
2018-12-14T02:05:03.029Z,97915.17
2018-12-14T02:07:35.622Z,97919.00
2018-12-14T02:10:08.230Z,97904.31
2018-12-14T02:12:39.181Z,97914.23
2018-12-14T02:15:11.983Z,97911.14
2018-12-14T02:17:48.214Z,97907.58
2018-12-14T02:20:19.260Z,97906.72
2018-12-14T02:22:52.250Z,97905.09
2018-12-14T02:25:25.313Z,97906.38
2018-12-14T02:27:58.784Z,97917.66
2018-12-14T02:30:45.281Z,97910.31
2018-12-14T02:33:22.603Z,97910.28
2018-12-14T02:35:58.844Z,97901.63
2018-12-14T02:38:35.469Z,97908.66
2018-12-14T02:41:08.559Z,97910.30
2018-12-14T02:43:41.581Z,97911.58
2018-12-14T02:46:16.617Z,97911.95
2018-12-14T02:48:51.854Z,97909.33
2018-12-14T02:51:26.666Z,97915.41
2018-12-14T02:53:59.357Z,97908.20
2018-12-14T02:56:32.861Z,97913.45
2018-12-14T02:59:05.548Z,97919.87
2018-12-14T03:01:42.557Z,97918.58
2018-12-14T03:04:15.699Z,97920.84
2018-12-14T03:06:53.685Z,97914.84
2018-12-14T03:09:31.070Z,97911.38
2018-12-14T03:12:04.385Z,97906.84
2018-12-14T03:14:42.575Z,97910.17
2018-12-14T03:17:17.418Z,97905.00
2018-12-14T03:19:54.193Z,97904.22
2018-12-14T03:22:38.871Z,97900.23
2018-12-14T03:25:20.745Z,97892.06
2018-12-14T03:28:01.705Z,97908.88
2018-12-14T03:30:37.385Z,97901.82
2018-12-14T03:33:13.110Z,97904.13
2018-12-14T03:35:52.060Z,97902.89
2018-12-14T03:38:25.836Z,97898.39
2018-12-14T03:41:02.835Z,97893.68
2018-12-14T03:43:40.458Z,97892.42
2018-12-14T03:46:15.152Z,97893.72
2018-12-14T03:48:51.191Z,97900.16
2018-12-14T03:51:28.438Z,97901.05
2018-12-14T03:54:06.317Z,97906.45
2018-12-14T03:56:39.470Z,97902.83
2018-12-14T03:59:12.340Z,97900.91
2018-12-14T04:01:45.043Z,97903.48
2018-12-14T04:04:17.180Z,97902.06
2018-12-14T04:06:50.186Z,97901.02
2018-12-14T04:09:23.405Z,97907.87
2018-12-14T04:11:56.500Z,97905.63
2018-12-14T04:14:28.950Z,97904.20
2018-12-14T04:17:02.015Z,97910.34
2018-12-14T04:19:32.320Z,97908.30
2018-12-14T04:22:05.431Z,97909.66
2018-12-14T04:24:38.341Z,97909.09
2018-12-14T04:27:11.234Z,97914.50
2018-12-14T04:29:43.686Z,97919.27
2018-12-14T04:32:16.725Z,97923.56
2018-12-14T04:34:49.194Z,97925.98
2018-12-14T04:37:26.573Z,97921.47
2018-12-14T04:40:00.896Z,97922.63
2018-12-14T04:42:34.126Z,97924.28
2018-12-14T04:50:15.502Z,97922.52
2018-12-14T04:52:48.867Z,97926.73
2018-12-14T04:55:22.215Z,97924.00
2018-12-14T04:57:55.584Z,97933.86
2018-12-14T05:00:27.958Z,97933.44
2018-12-14T05:03:02.632Z,97936.84
2018-12-14T05:05:37.866Z,97932.69
2018-12-14T05:08:10.903Z,97934.11
2018-12-14T05:10:47.883Z,97933.73
2018-12-14T05:13:23.201Z,97930.06
2018-12-14T05:16:01.146Z,97944.08
2018-12-14T05:18:39.854Z,97940.46
2018-12-14T05:21:19.788Z,97943.69
2018-12-14T05:23:57.535Z,97945.63
2018-12-14T05:26:30.776Z,97946.04
2018-12-14T05:29:17.050Z,97947.51
2018-12-14T05:31:54.263Z,97952.20
2018-12-14T05:34:28.118Z,97950.98
2018-12-14T05:37:01.448Z,97956.91
2018-12-14T05:39:41.567Z,97961.62
2018-12-14T05:42:23.230Z,97955.78
2018-12-14T05:44:57.606Z,97957.33
2018-12-14T05:47:36.482Z,97962.44
2018-12-14T06:12:51.860Z,97983.25
2018-12-14T06:15:27.772Z,97989.74
2018-12-14T06:18:05.630Z,97989.78
2018-12-14T06:20:39.266Z,97995.42
2018-12-14T06:23:16.231Z,97996.77
2018-12-14T06:25:49.188Z,97997.16
2018-12-14T06:28:22.642Z,98000.24
2018-12-14T06:31:01.198Z,97999.41
2018-12-14T06:33:35.758Z,98007.62
2018-12-14T06:36:09.857Z,98009.50
2018-12-14T06:38:43.961Z,98012.48
2018-12-14T06:41:16.936Z,98015.08
2018-12-14T06:43:47.880Z,98004.31
2018-12-14T06:46:21.091Z,98012.56
2018-12-14T06:48:55.346Z,98022.47
2018-12-14T06:51:38.538Z,98019.34
2018-12-14T06:54:15.761Z,98032.72
2018-12-14T06:56:49.368Z,98031.39
2018-12-14T06:59:27.900Z,98028.97
2018-12-14T07:01:59.283Z,98039.30
2018-12-14T07:04:32.540Z,98046.16
2018-12-14T07:07:05.713Z,98044.05
2018-12-14T07:09:38.514Z,98052.38
2018-12-14T07:12:12.355Z,98053.66
2018-12-14T07:14:49.955Z,98044.56
2018-12-14T07:17:24.695Z,98054.57
2018-12-14T07:19:58.663Z,98052.36
2018-12-14T07:22:35.096Z,98056.22
2018-12-14T07:25:09.155Z,98055.86
2018-12-14T07:27:47.236Z,98066.68
2018-12-14T07:30:21.634Z,98058.88
2018-12-14T07:32:59.154Z,98056.98
2018-12-14T07:35:32.779Z,98062.47
2018-12-14T07:38:08.855Z,98059.95
2018-12-14T07:40:42.072Z,98064.55
2018-12-14T07:43:14.814Z,98066.80
2018-12-14T07:45:50.883Z,98071.95
2018-12-14T07:48:28.170Z,98068.14
2018-12-14T07:51:00.942Z,98066.91
2018-12-14T07:53:40.286Z,98072.19
2018-12-14T07:56:18.748Z,98066.99
2018-12-14T07:58:51.568Z,98069.61
2018-12-14T08:01:24.412Z,98074.02
2018-12-14T08:04:02.757Z,98070.11
2018-12-14T08:06:36.212Z,98076.70
2018-12-14T08:09:13.472Z,98068.13
2018-12-14T08:11:47.930Z,98071.16
2018-12-14T08:14:21.729Z,98075.78
2018-12-14T08:16:59.120Z,98065.96
2018-12-14T08:19:32.210Z,98072.80
2018-12-14T08:22:06.045Z,98077.95
2018-12-14T08:24:39.742Z,98080.27
2018-12-14T08:27:12.683Z,98086.84
2018-12-14T08:29:49.969Z,98083.38
2018-12-14T08:32:22.272Z,98083.73
2018-12-14T08:34:55.453Z,98085.32
2018-12-14T08:37:32.566Z,98087.04
2018-12-14T08:40:06.815Z,98089.23
2018-12-14T08:42:39.668Z,98097.39
2018-12-14T08:45:13.625Z,98100.84
2018-12-14T08:47:46.968Z,98094.27
2018-12-14T08:50:20.120Z,98105.27
2018-12-14T08:52:53.219Z,98106.08
2018-12-14T08:55:24.288Z,98106.48
2018-12-14T08:57:57.226Z,98106.54
2018-12-14T09:00:30.596Z,98102.92
2018-12-14T09:03:07.799Z,98104.03
2018-12-14T09:05:40.464Z,98106.40
2018-12-14T09:08:12.770Z,98105.88
2018-12-14T09:10:50.772Z,98108.55
2018-12-14T09:13:29.647Z,98116.84
2018-12-14T09:16:05.989Z,98118.52
2018-12-14T09:18:43.927Z,98119.75
2018-12-14T09:26:19.758Z,98110.44
2018-12-14T09:28:53.907Z,98109.78
2018-12-14T09:31:28.733Z,98107.72
2018-12-14T09:34:01.204Z,98101.33
2018-12-14T09:36:34.244Z,98098.97
2018-12-14T09:39:09.144Z,98105.80
2018-12-14T09:41:46.150Z,98094.28
2018-12-14T09:44:24.386Z,98090.15
2018-12-14T09:46:57.577Z,98092.59
2018-12-14T09:49:30.906Z,98099.12
2018-12-14T09:52:07.224Z,98100.69
2018-12-14T09:54:41.340Z,98098.78
2018-12-14T09:57:14.524Z,98097.06
2018-12-14T09:59:50.754Z,98093.81
2018-12-14T10:02:21.703Z,98091.38
2018-12-14T10:04:59.282Z,98095.90
2018-12-14T10:07:31.870Z,98089.01
2018-12-14T10:10:06.796Z,98089.12
2018-12-14T10:12:39.804Z,98085.34
2018-12-14T10:15:13.095Z,98093.09
2018-12-14T10:17:49.365Z,98082.87
2018-12-14T10:20:23.467Z,98088.03
2018-12-14T10:23:02.373Z,98085.34
2018-12-14T10:25:39.550Z,98086.30
2018-12-14T10:35:43.426Z,98078.36
2018-12-14T10:38:16.637Z,98077.63
2018-12-14T10:40:49.279Z,98072.76
2018-12-14T10:43:21.874Z,98063.63
2018-12-14T10:46:01.870Z,98067.48
2018-12-14T10:48:35.019Z,98063.05
2018-12-14T10:51:08.175Z,98067.72
2018-12-14T10:53:41.393Z,98070.53
2018-12-14T10:56:15.890Z,98067.42
2018-12-14T10:58:52.256Z,98063.93
2018-12-14T11:01:30.534Z,98058.09
2018-12-14T11:04:03.323Z,98060.08
2018-12-14T11:06:39.890Z,98050.06
2018-12-14T11:09:17.784Z,98058.11
2018-12-14T11:11:51.227Z,98050.52
2018-12-14T11:14:24.126Z,98046.41
2018-12-14T11:16:57.683Z,98046.90
2018-12-14T11:19:34.834Z,98046.38
2018-12-14T11:22:26.169Z,98037.41
2018-12-14T11:25:03.302Z,98048.97
2018-12-14T11:27:39.923Z,98034.98
2018-12-14T11:30:17.378Z,98037.16
2018-12-14T11:32:53.585Z,98039.44
2018-12-14T11:35:29.839Z,98033.92
2018-12-14T11:50:36.805Z,98032.11
2018-12-14T11:53:18.050Z,98024.04
2018-12-14T11:55:50.923Z,98025.27
2018-12-14T11:58:29.209Z,98021.50
2018-12-14T12:01:07.439Z,98024.04
2018-12-14T12:03:42.965Z,98027.87
2018-12-14T12:06:16.535Z,98023.58
2018-12-14T12:08:53.548Z,98021.97
2018-12-14T12:11:26.802Z,98017.23
2018-12-14T12:14:00.127Z,98017.40
2018-12-14T12:16:34.192Z,98020.36
2018-12-14T12:19:12.328Z,98017.75
2018-12-14T12:21:49.838Z,98021.45
2018-12-14T12:24:28.148Z,98016.52
2018-12-14T12:27:04.650Z,98010.75
2018-12-14T12:29:38.094Z,98011.93
2018-12-14T12:32:11.199Z,98017.94
2018-12-14T12:34:47.814Z,98015.16
2018-12-14T12:37:25.156Z,98012.36
2018-12-14T12:39:59.438Z,98009.02
2018-12-14T12:42:32.862Z,98008.84
2018-12-14T12:45:07.729Z,98005.27
2018-12-14T12:47:43.990Z,98005.83
2018-12-14T12:50:17.493Z,97997.78
2018-12-14T12:52:48.468Z,97995.62
2018-12-14T12:55:25.431Z,97990.02
2018-12-14T12:58:03.665Z,97987.70
2018-12-14T13:00:34.788Z,97988.67
2018-12-14T13:03:07.968Z,97991.30
2018-12-14T13:05:41.770Z,97992.90
2018-12-14T13:08:15.175Z,97989.74
2018-12-14T13:10:52.003Z,97989.74
2018-12-14T13:13:23.363Z,97997.78
2018-12-14T13:15:56.997Z,97998.20
2018-12-14T13:18:33.876Z,97990.30
2018-12-14T13:21:07.046Z,97984.95
2018-12-14T13:23:39.873Z,97984.75
2018-12-14T13:26:12.888Z,97989.59
2018-12-14T13:28:49.181Z,97987.36
2018-12-14T13:31:21.577Z,97982.63
2018-12-14T13:33:54.980Z,97993.80
2018-12-14T13:36:28.097Z,97991.13
2018-12-14T13:39:06.177Z,98000.90
2018-12-14T13:41:36.794Z,98003.14
2018-12-14T13:44:09.814Z,98002.81
2018-12-14T13:46:42.955Z,97998.73
2018-12-14T13:49:15.897Z,97998.94
2018-12-14T13:51:52.625Z,97996.07
2018-12-14T13:54:26.689Z,98005.16
2018-12-14T13:57:03.868Z,98003.48
2018-12-14T13:59:36.005Z,98001.00
2018-12-14T14:02:08.236Z,98006.95
2018-12-14T14:04:40.920Z,98008.61
2018-12-14T14:07:13.095Z,98002.95
2018-12-14T14:09:50.208Z,98007.83
2018-12-14T14:12:30.848Z,98010.80
2018-12-14T14:15:07.029Z,98012.48
2018-12-14T14:17:44.090Z,98010.49
2018-12-14T14:20:17.068Z,98015.64
2018-12-14T14:22:49.453Z,98013.30
2018-12-14T14:25:26.640Z,98009.67
2018-12-14T14:27:59.917Z,98016.47
2018-12-14T14:30:32.949Z,98021.12
2018-12-14T14:33:10.050Z,98016.66
2018-12-14T14:35:40.944Z,98023.42
2018-12-14T14:38:17.059Z,98015.14
2018-12-14T14:40:50.060Z,98023.73
2018-12-14T14:43:22.551Z,98027.73
2018-12-14T14:45:59.482Z,98023.01
2018-12-14T14:48:35.862Z,98029.50
2018-12-14T14:51:09.306Z,98029.39
2018-12-14T14:53:41.725Z,98033.73
2018-12-14T14:56:18.912Z,98031.70
2018-12-14T14:58:55.133Z,98034.75
2018-12-14T15:01:27.251Z,98037.63
2018-12-14T15:04:00.261Z,98036.54
2018-12-14T15:06:33.935Z,98038.66
2018-12-14T15:09:10.723Z,98033.13
2018-12-14T15:11:43.370Z,98042.80
2018-12-14T15:14:15.571Z,98036.00
2018-12-14T15:16:47.800Z,98036.70
2018-12-14T15:19:25.130Z,98040.83
2018-12-14T15:22:04.371Z,98049.46
2018-12-14T15:24:36.478Z,98048.28
2018-12-14T15:27:08.639Z,98042.13
2018-12-14T15:29:45.077Z,98047.91
2018-12-14T15:32:15.482Z,98046.08
2018-12-14T15:34:51.513Z,98054.80
2018-12-14T15:37:23.713Z,98057.15
2018-12-14T15:39:59.851Z,98061.60
2018-12-14T15:42:36.239Z,98062.44
2018-12-14T15:45:13.256Z,98063.15
2018-12-14T15:47:46.370Z,98069.03
2018-12-14T15:50:22.434Z,98065.70
2018-12-14T15:52:58.642Z,98062.44
2018-12-14T15:55:30.924Z,98059.64
2018-12-14T15:58:03.077Z,98060.28
2018-12-14T16:13:18.661Z,98066.00
2018-12-14T16:15:50.854Z,98070.38
2018-12-14T16:18:22.980Z,98075.36
2018-12-14T16:20:56.422Z,98084.23
2018-12-14T16:23:28.406Z,98082.27
2018-12-14T16:26:04.569Z,98081.37
2018-12-14T16:28:37.084Z,98080.78
2018-12-14T16:31:10.670Z,98082.05
2018-12-14T16:33:43.607Z,98078.59
2018-12-14T16:36:19.901Z,98081.99
2018-12-14T16:38:56.160Z,98073.37
2018-12-14T16:41:32.520Z,98074.56
2018-12-14T16:44:05.518Z,98080.14
2018-12-14T16:46:37.839Z,98083.41
2018-12-14T16:49:10.559Z,98085.37
2018-12-14T16:51:43.394Z,98091.97
2018-12-14T16:54:16.261Z,98088.69
2018-12-14T16:56:52.486Z,98086.55
2018-12-14T16:59:24.590Z,98088.95
2018-12-14T17:01:56.915Z,98089.23
2018-12-14T17:04:29.348Z,98093.93
2018-12-14T17:07:02.165Z,98093.17
2018-12-14T17:09:38.343Z,98091.23
2018-12-14T17:12:14.659Z,98098.81
2018-12-14T17:17:32.872Z,98107.07
2018-12-14T17:20:10.480Z,98107.25
2018-12-14T17:22:50.779Z,98107.62
2018-12-14T17:25:25.702Z,98109.90
2018-12-14T17:28:06.526Z,98106.61
2018-12-14T17:30:44.173Z,98104.67
2018-12-14T17:33:19.018Z,98107.68
2018-12-14T17:35:55.122Z,98101.22
2018-12-14T17:38:35.386Z,98111.94
2018-12-14T17:41:08.617Z,98113.57
2018-12-14T17:43:51.353Z,98114.33
2018-12-14T17:46:25.629Z,98118.52
2018-12-14T17:48:59.107Z,98123.83
2018-12-14T17:51:36.849Z,98116.45
2018-12-14T17:54:19.327Z,98114.80
2018-12-14T17:56:53.955Z,98118.52
2018-12-14T17:59:27.263Z,98114.52
2018-12-14T18:02:04.135Z,98116.85
2018-12-14T18:04:37.500Z,98115.81
2018-12-14T18:07:09.583Z,98120.52
2018-12-14T18:09:44.225Z,98109.92
2018-12-14T18:12:22.097Z,98112.59
2018-12-14T18:14:59.452Z,98115.34
2018-12-14T18:17:32.451Z,98113.96
2018-12-14T18:20:06.418Z,98114.81
2018-12-14T18:22:39.310Z,98121.73
2018-12-14T18:25:16.758Z,98115.98
2018-12-14T18:27:49.748Z,98124.56
2018-12-14T18:30:23.786Z,98129.91
2018-12-14T18:33:00.216Z,98126.97
2018-12-14T18:35:38.632Z,98125.05
2018-12-14T18:38:11.523Z,98128.28
2018-12-14T18:40:47.880Z,98124.05
2018-12-14T18:43:24.121Z,98126.84
2018-12-14T18:46:02.943Z,98127.44
2018-12-14T18:48:40.033Z,98120.65
2018-12-14T18:51:16.646Z,98125.81
2018-12-14T18:53:56.374Z,98126.52
2018-12-14T18:56:29.599Z,98125.31
2018-12-14T18:59:02.769Z,98130.77
2018-12-14T19:03:23.988Z,98124.05
2018-12-14T19:05:57.177Z,98130.03
2018-12-14T19:08:30.143Z,98135.19
2018-12-14T19:11:02.632Z,98124.34
2018-12-14T19:13:35.632Z,98135.38
2018-12-14T19:16:11.901Z,98130.11
2018-12-14T19:18:48.131Z,98132.38
2018-12-14T19:22:58.989Z,98131.82
2018-12-14T19:25:31.904Z,98133.66
2018-12-14T19:28:06.653Z,98131.50
2018-12-14T19:30:39.438Z,98126.25
2018-12-14T19:34:40.437Z,98127.44
2018-12-14T19:46:52.837Z,98079.87
2018-12-14T19:49:25.086Z,98086.66
2018-12-14T19:52:01.724Z,98099.77
2018-12-14T19:54:34.591Z,98114.66
2018-12-14T19:57:06.777Z,98120.81
2018-12-14T19:59:38.950Z,98126.22
2018-12-14T20:02:12.074Z,98124.71
2018-12-14T20:04:48.778Z,98123.52
2018-12-14T20:07:21.399Z,98118.84
2018-12-14T20:09:53.697Z,98129.12
2018-12-14T20:12:26.420Z,98131.22
2018-12-14T20:15:02.557Z,98133.06
2018-12-14T20:17:39.759Z,98137.83
2018-12-14T20:20:10.188Z,98136.47
2018-12-14T20:22:46.564Z,98144.34
2018-12-14T20:25:19.440Z,98138.98
2018-12-14T20:27:56.602Z,98132.70
2018-12-14T20:30:29.655Z,98134.13
2018-12-14T20:33:01.896Z,98135.44
2018-12-14T20:35:39.120Z,98135.02
2018-12-14T20:38:12.194Z,98132.97
2018-12-14T20:40:48.446Z,98135.23
2018-12-14T20:43:21.031Z,98133.97
2018-12-14T20:45:57.948Z,98126.55
2018-12-14T20:48:28.189Z,98133.91
2018-12-14T20:51:04.370Z,98132.67
2018-12-14T20:53:37.894Z,98134.48
2018-12-14T20:56:15.769Z,98125.86
2018-12-14T20:58:48.436Z,98137.08
2018-12-14T21:01:22.377Z,98130.64
2018-12-14T21:03:55.565Z,98123.27
2018-12-14T21:06:29.219Z,98126.30
2018-12-14T21:09:02.413Z,98124.50
2018-12-14T21:11:38.766Z,98124.98
2018-12-14T21:14:19.850Z,98128.91
2018-12-14T21:16:55.462Z,98122.88
2018-12-14T21:19:32.719Z,98115.03
2018-12-14T21:22:11.711Z,98125.05
2018-12-14T21:24:45.795Z,98123.31
2018-12-14T21:27:19.112Z,98125.48
2018-12-14T21:29:52.126Z,98129.77
2018-12-14T21:32:24.919Z,98122.90
2018-12-14T21:34:59.324Z,98130.26
2018-12-14T21:37:30.871Z,98125.00
2018-12-14T21:40:04.373Z,98131.88
2018-12-14T21:42:37.101Z,98129.77
2018-12-14T21:45:24.727Z,98132.91
2018-12-14T21:47:59.373Z,98137.20
2018-12-14T21:50:39.912Z,98132.91
2018-12-14T21:53:17.620Z,98135.07
2018-12-14T21:55:55.744Z,98135.08
2018-12-14T21:58:36.642Z,98124.69
2018-12-14T22:01:12.562Z,98128.14
2018-12-14T22:03:57.163Z,98124.63
2018-12-14T22:06:36.262Z,98129.40
2018-12-14T22:09:18.755Z,98126.80
2018-12-14T22:11:57.125Z,98128.58
2018-12-14T22:14:37.096Z,98119.47
2018-12-14T22:17:09.876Z,98123.38
2018-12-14T22:19:53.601Z,98125.97
2018-12-14T22:22:37.865Z,98135.06
2018-12-14T22:25:12.235Z,98124.23
2018-12-14T22:27:48.607Z,98126.84
2018-12-14T22:30:25.388Z,98116.45
2018-12-14T22:32:57.740Z,98120.72
2018-12-14T22:35:34.756Z,98118.55
2018-12-14T22:38:07.630Z,98117.25
2018-12-14T22:40:40.691Z,98114.64
2018-12-14T22:43:13.057Z,98110.32
2018-12-14T22:45:45.331Z,98106.47
2018-12-14T22:48:21.980Z,98105.61
2018-12-14T22:50:54.957Z,98111.23
2018-12-14T22:53:27.260Z,98117.25
2018-12-14T22:56:03.433Z,98109.02
2018-12-14T22:58:40.098Z,98098.24
2018-12-14T23:01:12.747Z,98101.72
2018-12-14T23:03:49.626Z,98106.04
2018-12-14T23:06:20.698Z,98100.41
2018-12-14T23:08:57.706Z,98093.03
2018-12-14T23:11:29.853Z,98095.63
2018-12-14T23:14:03.058Z,98088.31
2018-12-14T23:16:33.324Z,98083.08
2018-12-14T23:19:06.447Z,98081.77
2018-12-14T23:21:39.623Z,98082.63
2018-12-14T23:24:12.700Z,98080.52
2018-12-14T23:26:44.831Z,98078.31
2018-12-14T23:29:17.154Z,98082.21
2018-12-14T23:31:49.581Z,98061.83
2018-12-14T23:34:21.697Z,98067.89
2018-12-14T23:36:53.939Z,98068.75
2018-12-14T23:39:24.668Z,98065.78
2018-12-14T23:41:57.324Z,98059.23
2018-12-14T23:44:29.670Z,98059.66
2018-12-14T23:47:06.648Z,98059.23
2018-12-14T23:49:43.071Z,98060.52
2018-12-14T23:52:19.154Z,98062.33
2018-12-14T23:54:51.336Z,98060.16
2018-12-14T23:57:27.621Z,98052.91
